sensor_id;sensor_type;location;lat;lon;timestamp;temperature;humidity
12811;DHT22;6470;47.654;7.896;2023-03-24T00:01:22;15.40;99.90
12811;DHT22;6470;47.654;7.896;2023-03-24T00:03:48;15.20;99.90
12811;DHT22;6470;47.654;7.896;2023-03-24T00:06:16;13.00;99.90
12811;DHT22;6470;47.654;7.896;2023-03-24T00:11:13;14.80;99.90
12811;DHT22;6470;47.654;7.896;2023-03-24T00:13:39;14.90;99.90
12811;DHT22;6470;47.654;7.896;2023-03-24T00:16:13;14.90;99.90
12811;DHT22;6470;47.654;7.896;2023-03-24T00:18:41;14.50;99.90
12811;DHT22;6470;47.654;7.896;2023-03-24T00:21:07;10.10;99.90
12811;DHT22;6470;47.654;7.896;2023-03-24T00:23:35;15.90;99.90
12811;DHT22;6470;47.654;7.896;2023-03-24T00:28:30;15.10;99.90
12811;DHT22;6470;47.654;7.896;2023-03-24T00:30:58;15.30;99.90
12811;DHT22;6470;47.654;7.896;2023-03-24T00:33:24;15.10;99.90
12811;DHT22;6470;47.654;7.896;2023-03-24T00:35:50;14.40;99.90
12811;DHT22;6470;47.654;7.896;2023-03-24T00:38:16;14.80;99.90
12811;DHT22;6470;47.654;7.896;2023-03-24T00:40:45;15.60;99.90
12811;DHT22;6470;47.654;7.896;2023-03-24T00:45:39;15.40;99.90
12811;DHT22;6470;47.654;7.896;2023-03-24T00:48:15;14.90;99.90
12811;DHT22;6470;47.654;7.896;2023-03-24T00:50:46;14.50;99.90
12811;DHT22;6470;47.654;7.896;2023-03-24T00:53:16;15.10;99.90
12811;DHT22;6470;47.654;7.896;2023-03-24T00:55:43;15.20;99.90
12811;DHT22;6470;47.654;7.896;2023-03-24T00:58:14;15.10;99.90
12811;DHT22;6470;47.654;7.896;2023-03-24T01:00:45;15.70;99.90
12811;DHT22;6470;47.654;7.896;2023-03-24T01:03:11;15.70;99.90
12811;DHT22;6470;47.654;7.896;2023-03-24T01:05:37;10.30;99.90
12811;DHT22;6470;47.654;7.896;2023-03-24T01:08:04;15.40;99.90
12811;DHT22;6470;47.654;7.896;2023-03-24T01:10:33;15.20;99.90
12811;DHT22;6470;47.654;7.896;2023-03-24T01:13:00;14.90;99.90
12811;DHT22;6470;47.654;7.896;2023-03-24T01:15:29;15.30;99.90
12811;DHT22;6470;47.654;7.896;2023-03-24T01:17:56;15.20;99.90
12811;DHT22;6470;47.654;7.896;2023-03-24T01:20:22;15.40;99.90
12811;DHT22;6470;47.654;7.896;2023-03-24T01:22:49;14.90;99.90
12811;DHT22;6470;47.654;7.896;2023-03-24T01:25:24;15.20;99.90
12811;DHT22;6470;47.654;7.896;2023-03-24T01:27:51;14.90;99.90
12811;DHT22;6470;47.654;7.896;2023-03-24T01:30:20;15.50;99.90
12811;DHT22;6470;47.654;7.896;2023-03-24T01:32:47;15.00;99.90
12811;DHT22;6470;47.654;7.896;2023-03-24T01:35:13;15.30;99.90
12811;DHT22;6470;47.654;7.896;2023-03-24T01:37:39;10.30;99.90
12811;DHT22;6470;47.654;7.896;2023-03-24T01:40:06;14.80;99.90
12811;DHT22;6470;47.654;7.896;2023-03-24T01:42:36;14.90;99.90
12811;DHT22;6470;47.654;7.896;2023-03-24T01:48:08;15.00;99.90
12811;DHT22;6470;47.654;7.896;2023-03-24T01:50:36;8.70;99.90
12811;DHT22;6470;47.654;7.896;2023-03-24T01:55:30;15.10;99.90
12811;DHT22;6470;47.654;7.896;2023-03-24T01:57:59;12.30;99.90
12811;DHT22;6470;47.654;7.896;2023-03-24T02:00:26;15.20;99.90
12811;DHT22;6470;47.654;7.896;2023-03-24T02:02:56;14.90;99.90
12811;DHT22;6470;47.654;7.896;2023-03-24T02:05:35;14.90;99.90
12811;DHT22;6470;47.654;7.896;2023-03-24T02:10:30;14.80;99.90
12811;DHT22;6470;47.654;7.896;2023-03-24T02:12:57;14.90;99.90
12811;DHT22;6470;47.654;7.896;2023-03-24T02:15:25;14.90;99.90
12811;DHT22;6470;47.654;7.896;2023-03-24T02:55:52;12.40;99.90
12811;DHT22;6470;47.654;7.896;2023-03-24T03:01:04;14.80;99.90
12811;DHT22;6470;47.654;7.896;2023-03-24T03:03:49;9.90;99.90
12811;DHT22;6470;47.654;7.896;2023-03-24T03:06:26;15.10;99.90
12811;DHT22;6470;47.654;7.896;2023-03-24T03:08:54;15.10;99.90
12811;DHT22;6470;47.654;7.896;2023-03-24T03:11:21;15.70;99.90
12811;DHT22;6470;47.654;7.896;2023-03-24T03:13:51;14.80;99.90
12811;DHT22;6470;47.654;7.896;2023-03-24T03:19:01;15.20;99.90
12811;DHT22;6470;47.654;7.896;2023-03-24T03:21:36;15.20;99.90
12811;DHT22;6470;47.654;7.896;2023-03-24T03:24:08;12.60;99.90
12811;DHT22;6470;47.654;7.896;2023-03-24T03:26:36;15.10;99.90
12811;DHT22;6470;47.654;7.896;2023-03-24T03:29:10;12.50;99.90
12811;DHT22;6470;47.654;7.896;2023-03-24T03:31:53;12.50;99.90
12811;DHT22;6470;47.654;7.896;2023-03-24T03:37:33;15.20;99.90
12811;DHT22;6470;47.654;7.896;2023-03-24T03:42:34;14.60;99.90
12811;DHT22;6470;47.654;7.896;2023-03-24T03:45:00;15.10;99.90
12811;DHT22;6470;47.654;7.896;2023-03-24T03:47:26;14.40;99.90
12811;DHT22;6470;47.654;7.896;2023-03-24T03:49:52;15.10;99.90
12811;DHT22;6470;47.654;7.896;2023-03-24T03:52:18;15.50;99.90
12811;DHT22;6470;47.654;7.896;2023-03-24T03:54:44;15.00;99.90
12811;DHT22;6470;47.654;7.896;2023-03-24T04:00:33;12.30;99.90
12811;DHT22;6470;47.654;7.896;2023-03-24T04:06:05;14.50;99.90
12811;DHT22;6470;47.654;7.896;2023-03-24T04:20:02;15.40;99.90
12811;DHT22;6470;47.654;7.896;2023-03-24T04:28:00;12.30;99.90
12811;DHT22;6470;47.654;7.896;2023-03-24T04:30:47;15.40;99.90
12811;DHT22;6470;47.654;7.896;2023-03-24T04:33:19;15.70;99.90
12811;DHT22;6470;47.654;7.896;2023-03-24T04:36:06;10.00;99.90
12811;DHT22;6470;47.654;7.896;2023-03-24T04:38:45;15.20;99.90
12811;DHT22;6470;47.654;7.896;2023-03-24T04:41:14;15.50;99.90
12811;DHT22;6470;47.654;7.896;2023-03-24T04:43:43;15.40;99.90
12811;DHT22;6470;47.654;7.896;2023-03-24T04:46:09;15.20;99.90
12811;DHT22;6470;47.654;7.896;2023-03-24T04:48:35;11.50;99.90
12811;DHT22;6470;47.654;7.896;2023-03-24T04:51:02;14.80;99.90
12811;DHT22;6470;47.654;7.896;2023-03-24T04:53:28;12.10;99.90
12811;DHT22;6470;47.654;7.896;2023-03-24T04:58:47;14.70;99.90
12811;DHT22;6470;47.654;7.896;2023-03-24T05:01:15;12.00;99.90
12811;DHT22;6470;47.654;7.896;2023-03-24T05:03:41;11.60;99.90
12811;DHT22;6470;47.654;7.896;2023-03-24T05:06:10;11.60;99.90
12811;DHT22;6470;47.654;7.896;2023-03-24T05:08:37;14.90;99.90
12811;DHT22;6470;47.654;7.896;2023-03-24T05:11:03;15.20;99.90
12811;DHT22;6470;47.654;7.896;2023-03-24T05:13:29;14.70;99.90
12811;DHT22;6470;47.654;7.896;2023-03-24T05:15:55;14.50;99.90
12811;DHT22;6470;47.654;7.896;2023-03-24T05:18:21;14.50;99.90
12811;DHT22;6470;47.654;7.896;2023-03-24T05:20:47;14.80;99.90
12811;DHT22;6470;47.654;7.896;2023-03-24T05:23:13;14.70;99.90
12811;DHT22;6470;47.654;7.896;2023-03-24T05:25:39;9.90;99.90
12811;DHT22;6470;47.654;7.896;2023-03-24T05:28:04;12.50;99.90
12811;DHT22;6470;47.654;7.896;2023-03-24T05:30:30;12.90;99.90
12811;DHT22;6470;47.654;7.896;2023-03-24T05:32:56;12.00;99.90
12811;DHT22;6470;47.654;7.896;2023-03-24T05:35:22;12.00;99.90
12811;DHT22;6470;47.654;7.896;2023-03-24T05:37:49;12.80;99.90
12811;DHT22;6470;47.654;7.896;2023-03-24T05:40:15;12.50;99.90
12811;DHT22;6470;47.654;7.896;2023-03-24T05:42:41;12.10;99.90
12811;DHT22;6470;47.654;7.896;2023-03-24T05:45:08;12.00;99.90
12811;DHT22;6470;47.654;7.896;2023-03-24T05:47:33;12.20;99.90
12811;DHT22;6470;47.654;7.896;2023-03-24T05:49:59;11.60;99.90
12811;DHT22;6470;47.654;7.896;2023-03-24T05:52:25;12.50;99.90
12811;DHT22;6470;47.654;7.896;2023-03-24T05:54:51;12.60;99.90
12811;DHT22;6470;47.654;7.896;2023-03-24T05:57:18;12.30;99.90
12811;DHT22;6470;47.654;7.896;2023-03-24T05:59:44;11.60;99.90
12811;DHT22;6470;47.654;7.896;2023-03-24T06:02:10;14.90;99.90
12811;DHT22;6470;47.654;7.896;2023-03-24T06:04:36;15.20;99.90
12811;DHT22;6470;47.654;7.896;2023-03-24T06:10:25;11.70;99.90
12811;DHT22;6470;47.654;7.896;2023-03-24T06:12:53;12.10;99.90
12811;DHT22;6470;47.654;7.896;2023-03-24T06:15:19;12.10;99.90
12811;DHT22;6470;47.654;7.896;2023-03-24T06:17:45;15.50;99.90
12811;DHT22;6470;47.654;7.896;2023-03-24T06:20:12;12.00;99.90
12811;DHT22;6470;47.654;7.896;2023-03-24T06:22:44;11.90;99.90
12811;DHT22;6470;47.654;7.896;2023-03-24T06:25:13;11.70;99.90
12811;DHT22;6470;47.654;7.896;2023-03-24T06:27:43;11.80;99.90
12811;DHT22;6470;47.654;7.896;2023-03-24T06:30:16;12.50;99.90
12811;DHT22;6470;47.654;7.896;2023-03-24T06:35:12;12.20;99.90
12811;DHT22;6470;47.654;7.896;2023-03-24T06:37:38;11.70;99.90
12811;DHT22;6470;47.654;7.896;2023-03-24T06:40:05;11.70;99.90
12811;DHT22;6470;47.654;7.896;2023-03-24T06:42:31;12.10;99.90
12811;DHT22;6470;47.654;7.896;2023-03-24T06:44:57;12.30;99.90
12811;DHT22;6470;47.654;7.896;2023-03-24T06:47:22;12.20;99.90
12811;DHT22;6470;47.654;7.896;2023-03-24T06:49:48;12.00;99.90
12811;DHT22;6470;47.654;7.896;2023-03-24T06:52:14;11.60;99.90
12811;DHT22;6470;47.654;7.896;2023-03-24T06:54:40;14.90;99.90
12811;DHT22;6470;47.654;7.896;2023-03-24T06:57:05;11.90;99.90
12811;DHT22;6470;47.654;7.896;2023-03-24T06:59:32;10.30;99.90
12811;DHT22;6470;47.654;7.896;2023-03-24T07:09:16;10.00;99.90
12811;DHT22;6470;47.654;7.896;2023-03-24T07:11:43;12.10;99.90
12811;DHT22;6470;47.654;7.896;2023-03-24T07:14:08;12.10;99.90
12811;DHT22;6470;47.654;7.896;2023-03-24T07:16:35;15.10;99.90
12811;DHT22;6470;47.654;7.896;2023-03-24T07:19:01;15.10;99.90
12811;DHT22;6470;47.654;7.896;2023-03-24T07:21:27;15.00;99.90
12811;DHT22;6470;47.654;7.896;2023-03-24T07:23:53;15.00;99.90
12811;DHT22;6470;47.654;7.896;2023-03-24T07:31:11;12.00;99.90
12811;DHT22;6470;47.654;7.896;2023-03-24T07:36:04;14.80;99.90
12811;DHT22;6470;47.654;7.896;2023-03-24T07:38:32;11.80;99.90
12811;DHT22;6470;47.654;7.896;2023-03-24T07:43:25;11.80;99.90
12811;DHT22;6470;47.654;7.896;2023-03-24T07:48:16;11.90;99.90
12811;DHT22;6470;47.654;7.896;2023-03-24T07:50:42;14.50;99.90
12811;DHT22;6470;47.654;7.896;2023-03-24T07:53:08;14.60;99.90
12811;DHT22;6470;47.654;7.896;2023-03-24T07:55:37;14.60;99.90
12811;DHT22;6470;47.654;7.896;2023-03-24T08:00:29;11.90;99.90
12811;DHT22;6470;47.654;7.896;2023-03-24T08:02:57;15.20;99.90
12811;DHT22;6470;47.654;7.896;2023-03-24T08:05:24;9.90;99.90
12811;DHT22;6470;47.654;7.896;2023-03-24T08:07:54;11.90;99.90
12811;DHT22;6470;47.654;7.896;2023-03-24T08:10:28;11.80;99.90
12811;DHT22;6470;47.654;7.896;2023-03-24T08:12:55;14.70;99.90
12811;DHT22;6470;47.654;7.896;2023-03-24T08:17:48;15.00;99.90
12811;DHT22;6470;47.654;7.896;2023-03-24T08:22:43;12.10;99.90
12811;DHT22;6470;47.654;7.896;2023-03-24T08:25:10;12.10;99.90
12811;DHT22;6470;47.654;7.896;2023-03-24T08:27:37;15.00;99.90
12811;DHT22;6470;47.654;7.896;2023-03-24T08:30:07;14.60;99.90
12811;DHT22;6470;47.654;7.896;2023-03-24T08:32:33;12.00;99.90
12811;DHT22;6470;47.654;7.896;2023-03-24T08:34:59;14.40;99.90
12811;DHT22;6470;47.654;7.896;2023-03-24T08:37:25;14.50;99.90
12811;DHT22;6470;47.654;7.896;2023-03-24T08:39:51;14.90;99.90
12811;DHT22;6470;47.654;7.896;2023-03-24T08:44:42;14.50;99.90
12811;DHT22;6470;47.654;7.896;2023-03-24T08:47:09;12.50;99.90
12811;DHT22;6470;47.654;7.896;2023-03-24T08:49:35;9.90;99.90
12811;DHT22;6470;47.654;7.896;2023-03-24T08:54:26;15.00;99.90
12811;DHT22;6470;47.654;7.896;2023-03-24T08:56:52;12.20;99.90
12811;DHT22;6470;47.654;7.896;2023-03-24T09:04:10;12.20;99.90
12811;DHT22;6470;47.654;7.896;2023-03-24T09:06:36;15.00;99.90
12811;DHT22;6470;47.654;7.896;2023-03-24T09:09:02;12.30;99.90
12811;DHT22;6470;47.654;7.896;2023-03-24T09:13:53;15.10;99.90
12811;DHT22;6470;47.654;7.896;2023-03-24T09:16:19;15.10;99.90
12811;DHT22;6470;47.654;7.896;2023-03-24T09:21:12;15.30;99.90
12811;DHT22;6470;47.654;7.896;2023-03-24T09:23:38;15.50;99.90
12811;DHT22;6470;47.654;7.896;2023-03-24T09:26:04;14.30;99.90
12811;DHT22;6470;47.654;7.896;2023-03-24T09:28:31;14.60;99.90
12811;DHT22;6470;47.654;7.896;2023-03-24T09:31:03;15.10;99.90
12811;DHT22;6470;47.654;7.896;2023-03-24T09:33:29;10.20;99.90
12811;DHT22;6470;47.654;7.896;2023-03-24T09:35:57;15.00;99.90
12811;DHT22;6470;47.654;7.896;2023-03-24T09:38:23;15.00;99.90
12811;DHT22;6470;47.654;7.896;2023-03-24T09:40:54;15.40;99.90
12811;DHT22;6470;47.654;7.896;2023-03-24T09:43:36;14.70;99.90
12811;DHT22;6470;47.654;7.896;2023-03-24T09:46:13;14.90;99.90
12811;DHT22;6470;47.654;7.896;2023-03-24T09:48:58;15.30;99.90
12811;DHT22;6470;47.654;7.896;2023-03-24T09:51:43;15.10;99.90
12811;DHT22;6470;47.654;7.896;2023-03-24T09:56:50;15.30;99.90
12811;DHT22;6470;47.654;7.896;2023-03-24T09:59:36;14.80;99.90
12811;DHT22;6470;47.654;7.896;2023-03-24T10:02:13;15.50;99.90
12811;DHT22;6470;47.654;7.896;2023-03-24T10:04:39;12.40;99.90
12811;DHT22;6470;47.654;7.896;2023-03-24T10:07:29;15.40;99.90
12811;DHT22;6470;47.654;7.896;2023-03-24T10:09:58;15.00;99.90
12811;DHT22;6470;47.654;7.896;2023-03-24T10:12:47;14.40;99.90
12811;DHT22;6470;47.654;7.896;2023-03-24T10:15:25;15.00;99.90
12811;DHT22;6470;47.654;7.896;2023-03-24T10:18:04;15.00;99.90
12811;DHT22;6470;47.654;7.896;2023-03-24T10:21:18;14.90;99.90
12811;DHT22;6470;47.654;7.896;2023-03-24T10:29:12;14.80;99.90
12811;DHT22;6470;47.654;7.896;2023-03-24T10:31:46;12.10;99.90
12811;DHT22;6470;47.654;7.896;2023-03-24T10:34:13;12.10;99.90
12811;DHT22;6470;47.654;7.896;2023-03-24T10:36:39;12.10;99.90
12811;DHT22;6470;47.654;7.896;2023-03-24T10:39:08;15.20;99.90
12811;DHT22;6470;47.654;7.896;2023-03-24T10:41:34;14.60;99.90
12811;DHT22;6470;47.654;7.896;2023-03-24T10:44:01;12.20;99.90
12811;DHT22;6470;47.654;7.896;2023-03-24T10:46:29;15.00;99.90
12811;DHT22;6470;47.654;7.896;2023-03-24T10:49:25;14.30;99.90
12811;DHT22;6470;47.654;7.896;2023-03-24T10:51:53;15.50;99.90
12811;DHT22;6470;47.654;7.896;2023-03-24T11:00:00;14.70;99.90
12811;DHT22;6470;47.654;7.896;2023-03-24T11:02:40;12.30;99.90
12811;DHT22;6470;47.654;7.896;2023-03-24T11:05:17;10.10;99.90
12811;DHT22;6470;47.654;7.896;2023-03-24T11:07:46;11.90;99.90
12811;DHT22;6470;47.654;7.896;2023-03-24T11:10:31;15.00;99.90
12811;DHT22;6470;47.654;7.896;2023-03-24T11:15:27;11.90;99.90
12811;DHT22;6470;47.654;7.896;2023-03-24T11:17:58;14.90;99.90
12811;DHT22;6470;47.654;7.896;2023-03-24T11:20:38;11.80;99.90
12811;DHT22;6470;47.654;7.896;2023-03-24T11:23:10;15.20;99.90
12811;DHT22;6470;47.654;7.896;2023-03-24T11:25:40;14.80;99.90
12811;DHT22;6470;47.654;7.896;2023-03-24T11:28:15;11.80;99.90
12811;DHT22;6470;47.654;7.896;2023-03-24T11:30:47;14.90;99.90
12811;DHT22;6470;47.654;7.896;2023-03-24T11:35:45;12.50;99.90
12811;DHT22;6470;47.654;7.896;2023-03-24T11:38:16;11.80;99.90
12811;DHT22;6470;47.654;7.896;2023-03-24T11:40:59;14.60;99.90
12811;DHT22;6470;47.654;7.896;2023-03-24T11:43:29;15.00;99.90
12811;DHT22;6470;47.654;7.896;2023-03-24T11:45:59;15.00;99.90
12811;DHT22;6470;47.654;7.896;2023-03-24T11:48:41;14.90;99.90
12811;DHT22;6470;47.654;7.896;2023-03-24T11:51:24;15.20;99.90
12811;DHT22;6470;47.654;7.896;2023-03-24T11:53:54;11.90;99.90
12811;DHT22;6470;47.654;7.896;2023-03-24T11:56:36;15.10;99.90
12811;DHT22;6470;47.654;7.896;2023-03-24T12:00:07;14.90;99.90
12811;DHT22;6470;47.654;7.896;2023-03-24T12:02:44;9.90;99.90
12811;DHT22;6470;47.654;7.896;2023-03-24T12:11:13;12.20;99.90
12811;DHT22;6470;47.654;7.896;2023-03-24T12:13:48;15.20;99.90
12811;DHT22;6470;47.654;7.896;2023-03-24T12:24:57;14.40;99.90
12811;DHT22;6470;47.654;7.896;2023-03-24T12:46:51;15.50;99.90
12811;DHT22;6470;47.654;7.896;2023-03-24T12:54:40;14.80;99.90
12811;DHT22;6470;47.654;7.896;2023-03-24T12:57:16;15.00;99.90
12811;DHT22;6470;47.654;7.896;2023-03-24T12:59:52;14.40;99.90
12811;DHT22;6470;47.654;7.896;2023-03-24T13:05:02;15.00;99.90
12811;DHT22;6470;47.654;7.896;2023-03-24T13:07:31;10.10;99.90
12811;DHT22;6470;47.654;7.896;2023-03-24T13:10:24;12.10;99.90
12811;DHT22;6470;47.654;7.896;2023-03-24T13:13:15;15.30;99.90
12811;DHT22;6470;47.654;7.896;2023-03-24T13:24:11;15.40;99.90
12811;DHT22;6470;47.654;7.896;2023-03-24T13:26:49;15.20;99.90
12811;DHT22;6470;47.654;7.896;2023-03-24T13:37:57;15.60;99.90
12811;DHT22;6470;47.654;7.896;2023-03-24T13:40:29;15.50;99.90
12811;DHT22;6470;47.654;7.896;2023-03-24T13:43:06;15.00;99.90
12811;DHT22;6470;47.654;7.896;2023-03-24T13:50:50;10.00;99.90
12811;DHT22;6470;47.654;7.896;2023-03-24T13:53:17;15.30;99.90
12811;DHT22;6470;47.654;7.896;2023-03-24T13:55:50;9.90;99.90
12811;DHT22;6470;47.654;7.896;2023-03-24T13:58:26;12.40;99.90
12811;DHT22;6470;47.654;7.896;2023-03-24T14:03:38;11.50;99.90
12811;DHT22;6470;47.654;7.896;2023-03-24T14:06:07;15.40;99.90
12811;DHT22;6470;47.654;7.896;2023-03-24T14:14:16;12.50;99.90
12811;DHT22;6470;47.654;7.896;2023-03-24T14:21:42;12.00;99.90
12811;DHT22;6470;47.654;7.896;2023-03-24T14:24:16;12.20;99.90
12811;DHT22;6470;47.654;7.896;2023-03-24T14:26:46;12.30;99.90
12811;DHT22;6470;47.654;7.896;2023-03-24T14:29:39;12.40;99.90
12811;DHT22;6470;47.654;7.896;2023-03-24T14:32:06;11.40;99.90
12811;DHT22;6470;47.654;7.896;2023-03-24T14:34:33;11.30;99.90
12811;DHT22;6470;47.654;7.896;2023-03-24T14:37:02;12.40;99.90
12811;DHT22;6470;47.654;7.896;2023-03-24T14:39:44;12.00;99.90
12811;DHT22;6470;47.654;7.896;2023-03-24T14:45:00;12.60;99.90
12811;DHT22;6470;47.654;7.896;2023-03-24T14:47:31;11.90;99.90
12811;DHT22;6470;47.654;7.896;2023-03-24T14:50:00;12.00;99.90
12811;DHT22;6470;47.654;7.896;2023-03-24T14:52:34;12.30;99.90
12811;DHT22;6470;47.654;7.896;2023-03-24T14:58:36;12.20;99.90
12811;DHT22;6470;47.654;7.896;2023-03-24T15:01:04;12.60;99.90
12811;DHT22;6470;47.654;7.896;2023-03-24T15:06:22;12.30;99.90
12811;DHT22;6470;47.654;7.896;2023-03-24T15:08:50;12.60;99.90
12811;DHT22;6470;47.654;7.896;2023-03-24T15:11:21;9.80;99.90
12811;DHT22;6470;47.654;7.896;2023-03-24T15:13:56;9.60;99.90
12811;DHT22;6470;47.654;7.896;2023-03-24T15:16:27;11.80;99.90
12811;DHT22;6470;47.654;7.896;2023-03-24T15:21:38;10.70;99.90
12811;DHT22;6470;47.654;7.896;2023-03-24T15:29:18;12.20;99.90
12811;DHT22;6470;47.654;7.896;2023-03-24T15:31:44;12.20;99.90
12811;DHT22;6470;47.654;7.896;2023-03-24T15:37:04;10.80;99.90
12811;DHT22;6470;47.654;7.896;2023-03-24T15:39:35;10.60;99.90
12811;DHT22;6470;47.654;7.896;2023-03-24T15:42:06;12.30;99.90
12811;DHT22;6470;47.654;7.896;2023-03-24T15:44:36;10.00;99.90
12811;DHT22;6470;47.654;7.896;2023-03-24T15:47:03;10.40;99.90
12811;DHT22;6470;47.654;7.896;2023-03-24T15:49:34;10.00;99.90
12811;DHT22;6470;47.654;7.896;2023-03-24T15:54:51;10.10;99.90
12811;DHT22;6470;47.654;7.896;2023-03-24T15:57:21;9.80;99.90
12811;DHT22;6470;47.654;7.896;2023-03-24T15:59:56;9.80;99.90
12811;DHT22;6470;47.654;7.896;2023-03-24T16:02:45;11.80;99.90
12811;DHT22;6470;47.654;7.896;2023-03-24T16:05:24;9.70;99.90
12811;DHT22;6470;47.654;7.896;2023-03-24T16:08:05;10.50;99.90
12811;DHT22;6470;47.654;7.896;2023-03-24T16:10:41;10.50;99.90
12811;DHT22;6470;47.654;7.896;2023-03-24T16:13:21;10.50;99.90
12811;DHT22;6470;47.654;7.896;2023-03-24T16:22:08;11.90;99.90
12811;DHT22;6470;47.654;7.896;2023-03-24T16:24:35;12.10;99.90
12811;DHT22;6470;47.654;7.896;2023-03-24T16:27:00;12.40;99.90
12811;DHT22;6470;47.654;7.896;2023-03-24T16:29:26;10.60;99.90
12811;DHT22;6470;47.654;7.896;2023-03-24T16:31:56;10.40;99.90
12811;DHT22;6470;47.654;7.896;2023-03-24T16:34:22;10.80;99.90
12811;DHT22;6470;47.654;7.896;2023-03-24T16:36:50;10.30;99.90
12811;DHT22;6470;47.654;7.896;2023-03-24T16:39:24;10.70;99.90
12811;DHT22;6470;47.654;7.896;2023-03-24T16:41:51;10.30;99.90
12811;DHT22;6470;47.654;7.896;2023-03-24T16:44:18;10.30;99.90
12811;DHT22;6470;47.654;7.896;2023-03-24T16:46:46;10.50;99.90
12811;DHT22;6470;47.654;7.896;2023-03-24T16:49:14;10.10;99.90
12811;DHT22;6470;47.654;7.896;2023-03-24T16:51:41;9.90;99.90
12811;DHT22;6470;47.654;7.896;2023-03-24T16:54:07;9.60;99.90
12811;DHT22;6470;47.654;7.896;2023-03-24T16:56:34;9.90;99.90
12811;DHT22;6470;47.654;7.896;2023-03-24T16:59:01;9.10;99.90
12811;DHT22;6470;47.654;7.896;2023-03-24T17:01:38;9.40;99.90
12811;DHT22;6470;47.654;7.896;2023-03-24T17:04:16;9.00;99.90
12811;DHT22;6470;47.654;7.896;2023-03-24T17:06:45;9.20;99.90
12811;DHT22;6470;47.654;7.896;2023-03-24T17:11:42;9.40;99.90
12811;DHT22;6470;47.654;7.896;2023-03-24T17:14:09;9.60;99.90
12811;DHT22;6470;47.654;7.896;2023-03-24T17:16:41;9.70;99.90
12811;DHT22;6470;47.654;7.896;2023-03-24T17:19:12;10.00;99.90
12811;DHT22;6470;47.654;7.896;2023-03-24T17:21:47;10.30;99.90
12811;DHT22;6470;47.654;7.896;2023-03-24T17:24:14;9.90;99.90
12811;DHT22;6470;47.654;7.896;2023-03-24T17:26:40;10.50;99.90
12811;DHT22;6470;47.654;7.896;2023-03-24T17:29:09;10.00;99.90
12811;DHT22;6470;47.654;7.896;2023-03-24T17:31:35;9.00;99.90
12811;DHT22;6470;47.654;7.896;2023-03-24T17:34:01;9.90;99.90
12811;DHT22;6470;47.654;7.896;2023-03-24T17:36:27;9.90;99.90
12811;DHT22;6470;47.654;7.896;2023-03-24T17:38:53;8.90;99.90
12811;DHT22;6470;47.654;7.896;2023-03-24T17:41:18;10.10;99.90
12811;DHT22;6470;47.654;7.896;2023-03-24T17:43:45;9.60;99.90
12811;DHT22;6470;47.654;7.896;2023-03-24T17:46:11;9.60;99.90
12811;DHT22;6470;47.654;7.896;2023-03-24T17:48:37;10.10;99.90
12811;DHT22;6470;47.654;7.896;2023-03-24T17:53:29;9.30;99.90
12811;DHT22;6470;47.654;7.896;2023-03-24T17:55:59;9.50;99.90
12811;DHT22;6470;47.654;7.896;2023-03-24T17:58:33;9.30;99.90
12811;DHT22;6470;47.654;7.896;2023-03-24T18:01:01;9.30;99.90
12811;DHT22;6470;47.654;7.896;2023-03-24T18:03:31;9.50;99.90
12811;DHT22;6470;47.654;7.896;2023-03-24T18:06:09;8.60;99.90
12811;DHT22;6470;47.654;7.896;2023-03-24T18:08:36;8.70;99.90
12811;DHT22;6470;47.654;7.896;2023-03-24T18:11:13;9.70;99.90
12811;DHT22;6470;47.654;7.896;2023-03-24T18:13:40;9.30;99.90
12811;DHT22;6470;47.654;7.896;2023-03-24T18:19:28;9.10;99.90
12811;DHT22;6470;47.654;7.896;2023-03-24T18:21:53;9.60;99.90
12811;DHT22;6470;47.654;7.896;2023-03-24T18:24:19;9.50;99.90
12811;DHT22;6470;47.654;7.896;2023-03-24T18:26:45;8.50;99.90
12811;DHT22;6470;47.654;7.896;2023-03-24T18:29:11;9.80;99.90
12811;DHT22;6470;47.654;7.896;2023-03-24T18:34:02;8.70;99.90
12811;DHT22;6470;47.654;7.896;2023-03-24T18:36:28;9.20;99.90
12811;DHT22;6470;47.654;7.896;2023-03-24T18:39:04;8.30;99.90
12811;DHT22;6470;47.654;7.896;2023-03-24T18:41:30;8.90;99.90
12811;DHT22;6470;47.654;7.896;2023-03-24T18:43:57;8.30;99.90
12811;DHT22;6470;47.654;7.896;2023-03-24T18:46:24;8.50;99.90
12811;DHT22;6470;47.654;7.896;2023-03-24T18:48:51;7.70;99.90
12811;DHT22;6470;47.654;7.896;2023-03-24T18:51:19;8.30;99.90
12811;DHT22;6470;47.654;7.896;2023-03-24T18:53:48;8.00;99.90
12811;DHT22;6470;47.654;7.896;2023-03-24T18:56:14;7.80;99.90
12811;DHT22;6470;47.654;7.896;2023-03-24T19:01:17;7.70;99.90
12811;DHT22;6470;47.654;7.896;2023-03-24T19:03:48;7.70;99.90
12811;DHT22;6470;47.654;7.896;2023-03-24T19:06:14;8.50;99.90
12811;DHT22;6470;47.654;7.896;2023-03-24T19:08:45;7.70;99.90
12811;DHT22;6470;47.654;7.896;2023-03-24T19:11:14;7.60;99.90
12811;DHT22;6470;47.654;7.896;2023-03-24T19:13:40;7.50;99.90
12811;DHT22;6470;47.654;7.896;2023-03-24T19:16:07;7.70;99.90
12811;DHT22;6470;47.654;7.896;2023-03-24T19:23:29;7.00;99.90
12811;DHT22;6470;47.654;7.896;2023-03-24T19:28:22;5.00;99.90
12811;DHT22;6470;47.654;7.896;2023-03-24T19:30:48;4.70;99.90
12811;DHT22;6470;47.654;7.896;2023-03-24T19:33:14;7.80;99.90
12811;DHT22;6470;47.654;7.896;2023-03-24T19:38:06;7.80;99.90
12811;DHT22;6470;47.654;7.896;2023-03-24T19:40:31;7.30;99.90
12811;DHT22;6470;47.654;7.896;2023-03-24T19:45:23;7.20;99.90
12811;DHT22;6470;47.654;7.896;2023-03-24T19:47:49;7.00;99.90
12811;DHT22;6470;47.654;7.896;2023-03-24T19:50:16;7.30;99.90
12811;DHT22;6470;47.654;7.896;2023-03-24T19:52:42;4.00;99.90
12811;DHT22;6470;47.654;7.896;2023-03-24T19:55:10;6.60;99.90
12811;DHT22;6470;47.654;7.896;2023-03-24T19:57:36;6.90;99.90
12811;DHT22;6470;47.654;7.896;2023-03-24T20:00:03;6.60;99.90
12811;DHT22;6470;47.654;7.896;2023-03-24T20:02:30;6.90;99.90
12811;DHT22;6470;47.654;7.896;2023-03-24T20:04:56;7.30;99.90
12811;DHT22;6470;47.654;7.896;2023-03-24T20:07:23;7.00;99.90
12811;DHT22;6470;47.654;7.896;2023-03-24T20:09:51;6.50;99.90
12811;DHT22;6470;47.654;7.896;2023-03-24T20:12:17;6.80;99.90
12811;DHT22;6470;47.654;7.896;2023-03-24T20:14:43;6.80;99.90
12811;DHT22;6470;47.654;7.896;2023-03-24T20:17:16;6.60;99.90
12811;DHT22;6470;47.654;7.896;2023-03-24T20:19:42;7.30;99.90
12811;DHT22;6470;47.654;7.896;2023-03-24T20:24:34;6.30;99.90
12811;DHT22;6470;47.654;7.896;2023-03-24T20:27:03;6.60;99.90
12811;DHT22;6470;47.654;7.896;2023-03-24T20:29:29;7.30;99.90
12811;DHT22;6470;47.654;7.896;2023-03-24T20:31:55;7.50;99.90
12811;DHT22;6470;47.654;7.896;2023-03-24T20:34:21;6.80;99.90
12811;DHT22;6470;47.654;7.896;2023-03-24T20:36:47;7.00;99.90
12811;DHT22;6470;47.654;7.896;2023-03-24T20:39:13;6.60;99.90
12811;DHT22;6470;47.654;7.896;2023-03-24T20:41:38;7.00;99.90
12811;DHT22;6470;47.654;7.896;2023-03-24T20:44:05;7.30;99.90
12811;DHT22;6470;47.654;7.896;2023-03-24T20:46:31;4.30;99.90
12811;DHT22;6470;47.654;7.896;2023-03-24T20:48:56;6.90;99.90
12811;DHT22;6470;47.654;7.896;2023-03-24T20:51:22;7.20;99.90
12811;DHT22;6470;47.654;7.896;2023-03-24T20:53:48;6.80;99.90
12811;DHT22;6470;47.654;7.896;2023-03-24T20:56:15;7.40;99.90